Time;durP1;ratioP1;P1;durP2;ratioP2;P2;SDS_P1;SDS_P2;PMS_P1;PMS_P2;Temp;Humidity;BMP_temperature;BMP_pressure;BME280_temperature;BME280_humidity;BME280_pressure;Samples;Min_cycle;Max_cycle;Signal;HPM_P1;HPM_P2
2024/02/29 00:01:48;;;;;;;7.87;6.63;;;;;;;5.03;100.00;101621.34;5090087;28;20044;-39
2024/02/29 00:04:13;;;;;;;8.47;6.03;;;;;;;5.06;100.00;101615.63;5089518;28;20281;-39
2024/02/29 00:06:38;;;;;;;11.73;6.63;;;;;;;5.06;100.00;101615.63;5080821;28;20078;-39
2024/02/29 00:09:04;;;;;;;9.13;6.40;;;;;;;5.02;100.00;101601.72;5076873;28;20062;-39
2024/02/29 00:11:29;;;;;;;8.97;5.97;;;;;;;5.11;100.00;101607.88;5076506;28;20021;-39
2024/02/29 00:13:55;;;;;;;9.25;5.90;;;;;;;5.13;100.00;101600.53;5076328;28;20025;-39
2024/02/29 00:16:20;;;;;;;7.50;5.57;;;;;;;5.18;100.00;101600.81;5076102;28;20021;-39
2024/02/29 00:18:46;;;;;;;8.57;6.00;;;;;;;5.18;100.00;101597.31;5075760;28;20047;-39
2024/02/29 00:21:12;;;;;;;9.45;6.45;;;;;;;5.20;100.00;101597.97;5076017;28;20017;-39
2024/02/29 00:23:37;;;;;;;;;;;;;;;5.27;100.00;101602.44;5076115;28;20032;-39
2024/02/29 00:26:03;;;;;;;8.68;5.80;;;;;;;5.16;100.00;101582.22;5076729;28;19904;-39
2024/02/29 00:28:29;;;;;;;8.77;5.60;;;;;;;5.23;100.00;101590.41;5076146;28;20110;-40
2024/02/29 00:30:54;;;;;;;9.27;5.78;;;;;;;5.22;100.00;101583.38;5076617;28;20027;-40
2024/02/29 00:33:20;;;;;;;9.95;5.90;;;;;;;5.21;100.00;101580.84;5076126;28;20029;-40
2024/02/29 00:35:45;;;;;;;10.73;6.47;;;;;;;5.21;100.00;101587.03;5075396;28;20449;-40
2024/02/29 00:38:11;;;;;;;8.93;6.47;;;;;;;5.22;100.00;101580.69;5075450;28;20298;-39
2024/02/29 00:40:36;;;;;;;10.93;6.13;;;;;;;5.25;100.00;101572.28;5075638;28;20271;-39
2024/02/29 00:43:02;;;;;;;7.20;5.25;;;;;;;5.21;100.00;101573.63;5075609;28;20020;-39
2024/02/29 00:45:27;;;;;;;8.68;5.68;;;;;;;5.28;100.00;101576.47;5076385;28;20467;-39
2024/02/29 00:47:54;;;;;;;6.93;5.77;;;;;;;5.29;100.00;101573.59;5075864;28;20025;-39
2024/02/29 00:50:21;;;;;;;8.75;6.35;;;;;;;5.27;100.00;101570.25;5075979;28;20048;-39
2024/02/29 00:52:47;;;;;;;7.53;6.05;;;;;;;5.27;100.00;101566.72;5075620;28;20456;-39
2024/02/29 00:55:13;;;;;;;9.38;6.50;;;;;;;5.30;100.00;101555.66;5076324;28;20045;-40
2024/02/29 00:57:40;;;;;;;10.40;6.55;;;;;;;5.32;100.00;101562.50;5075288;28;20033;-39
2024/02/29 01:00:07;;;;;;;9.07;6.75;;;;;;;5.35;100.00;101562.13;5075295;28;20028;-39
2024/02/29 01:02:33;;;;;;;8.38;6.18;;;;;;;5.38;100.00;101556.44;5075207;28;20103;-39
2024/02/29 01:04:58;;;;;;;8.27;6.28;;;;;;;5.35;100.00;101542.53;5075455;28;20104;-40
2024/02/29 01:07:24;;;;;;;8.57;6.43;;;;;;;5.31;100.00;101520.59;5074842;28;20036;-40
2024/02/29 01:09:49;;;;;;;10.82;6.72;;;;;;;5.44;100.00;101544.13;5075624;28;20269;-40
2024/02/29 01:12:15;;;;;;;8.87;6.90;;;;;;;5.45;100.00;101540.44;5075286;28;20476;-40
2024/02/29 01:14:40;;;;;;;8.85;6.30;;;;;;;5.46;100.00;101533.22;5074679;28;20099;-40
2024/02/29 01:17:06;;;;;;;8.90;7.18;;;;;;;5.49;100.00;101541.75;5074185;28;20033;-40
2024/02/29 01:19:31;;;;;;;10.83;6.43;;;;;;;5.52;100.00;101532.53;5074737;28;20029;-40
2024/02/29 01:21:56;;;;;;;9.47;7.07;;;;;;;5.47;100.00;101521.50;5075322;28;20099;-39
2024/02/29 01:24:24;;;;;;;9.20;6.63;;;;;;;5.56;100.00;101531.13;5074802;28;20060;-39
2024/02/29 01:26:50;;;;;;;9.38;6.88;;;;;;;5.56;100.00;101520.38;5074686;28;20344;-39
2024/02/29 01:29:15;;;;;;;9.48;6.97;;;;;;;5.56;100.00;101526.63;5074969;28;20433;-40
2024/02/29 01:31:41;;;;;;;10.77;6.63;;;;;;;5.59;100.00;101520.88;5074361;28;20375;-40
2024/02/29 01:34:06;;;;;;;10.85;7.30;;;;;;;5.61;100.00;101518.00;5074266;28;20023;-40
2024/02/29 01:36:31;;;;;;;9.43;6.93;;;;;;;5.54;100.00;101503.66;5074301;28;20025;-40
2024/02/29 01:38:57;;;;;;;10.20;7.22;;;;;;;5.64;100.00;101509.59;5074242;28;20016;-40
2024/02/29 01:41:22;;;;;;;10.93;7.22;;;;;;;5.65;100.00;101508.56;5074947;28;20158;-40
2024/02/29 01:43:53;;;;;;;9.50;7.07;;;;;;;5.60;100.00;101497.56;5074404;28;20423;-40
2024/02/29 01:46:19;;;;;;;8.98;7.45;;;;;;;5.67;100.00;101502.03;5074304;28;20274;-39
2024/02/29 01:48:46;;;;;;;10.07;7.18;;;;;;;5.66;100.00;101504.84;5074601;28;20342;-40
2024/02/29 01:51:14;;;;;;;9.90;7.35;;;;;;;5.66;100.00;101499.50;5074227;28;20067;-40
2024/02/29 01:53:39;;;;;;;9.35;7.03;;;;;;;5.66;100.00;101489.63;5073969;28;20107;-40
2024/02/29 01:56:06;;;;;;;10.45;7.82;;;;;;;5.58;100.00;101470.09;5074160;28;20127;-40
2024/02/29 01:58:33;;;;;;;11.93;7.22;;;;;;;5.65;100.00;101485.25;5074160;28;20077;-40
2024/02/29 02:00:59;;;;;;;11.20;7.20;;;;;;;5.67;100.00;101487.78;5074046;28;20035;-40
2024/02/29 02:03:24;;;;;;;11.95;8.25;;;;;;;5.67;100.00;101469.00;5074098;28;20020;-40
2024/02/29 02:05:50;;;;;;;11.23;7.63;;;;;;;5.68;100.00;101466.09;5073964;28;20162;-40
2024/02/29 02:08:16;;;;;;;9.50;7.57;;;;;;;5.61;100.00;101458.97;5073729;28;20096;-40
2024/02/29 02:10:41;;;;;;;12.07;7.75;;;;;;;5.67;100.00;101464.44;5073963;28;20028;-40
2024/02/29 02:13:07;;;;;;;10.30;7.83;;;;;;;5.60;100.00;101450.09;5074443;28;20333;-40
2024/02/29 02:15:33;;;;;;;10.60;8.07;;;;;;;5.61;100.00;101448.22;5074094;28;20020;-40
2024/02/29 02:17:58;;;;;;;10.68;8.38;;;;;;;5.70;100.00;101455.19;5073822;28;20027;-40
2024/02/29 02:20:24;;;;;;;10.88;7.80;;;;;;;5.71;100.00;101448.81;5074132;28;20099;-40
2024/02/29 02:22:50;;;;;;;14.13;8.88;;;;;;;5.73;100.00;101446.78;5073522;28;20442;-40
2024/02/29 02:25:16;;;;;;;15.55;9.15;;;;;;;5.71;100.00;101446.13;5074044;28;20020;-40
2024/02/29 02:27:41;;;;;;;9.65;8.15;;;;;;;5.66;100.00;101433.28;5074213;28;20028;-39
2024/02/29 02:30:07;;;;;;;11.27;8.77;;;;;;;5.73;100.00;101438.72;5073722;28;20025;-40
2024/02/29 02:32:33;;;;;;;12.48;8.18;;;;;;;5.74;100.00;101437.69;5073329;28;20408;-40
2024/02/29 02:34:59;;;;;;;9.23;8.20;;;;;;;5.73;100.00;101435.22;5074161;28;20090;-40
2024/02/29 02:37:24;;;;;;;12.55;8.68;;;;;;;5.68;100.00;101427.72;5073651;28;20468;-39
2024/02/29 02:39:50;;;;;;;13.73;9.53;;;;;;;5.63;100.00;101414.84;5073437;28;20418;-39
2024/02/29 02:42:15;;;;;;;15.23;9.93;;;;;;;5.70;100.00;101420.31;5073593;28;20337;-39
2024/02/29 02:44:40;;;;;;;11.93;9.23;;;;;;;5.72;100.00;101412.09;5073917;28;20024;-39
2024/02/29 02:47:06;;;;;;;10.83;9.10;;;;;;;5.73;100.00;101413.75;5073480;28;20025;-39
2024/02/29 02:49:31;;;;;;;10.30;8.77;;;;;;;5.67;100.00;101401.91;5074040;28;20103;-39
2024/02/29 02:51:56;;;;;;;13.17;8.93;;;;;;;5.72;100.00;101402.19;5074070;28;20460;-39
2024/02/29 02:54:22;;;;;;;12.20;9.33;;;;;;;5.72;100.00;101395.97;5073646;28;20052;-39
2024/02/29 02:56:47;;;;;;;11.27;9.40;;;;;;;5.69;100.00;101394.50;5073154;28;20066;-39
2024/02/29 02:59:12;;;;;;;11.67;8.87;;;;;;;5.71;100.00;101395.16;5073965;28;20016;-39
2024/02/29 03:01:38;;;;;;;12.23;10.00;;;;;;;5.69;100.00;101383.75;5073610;28;20020;-39
2024/02/29 03:04:06;;;;;;;12.70;8.83;;;;;;;5.73;100.00;101382.38;5074209;28;20282;-40
2024/02/29 03:06:32;;;;;;;13.05;9.13;;;;;;;5.71;100.00;101381.75;5072334;28;20529;-40
2024/02/29 03:08:57;;;;;;;13.47;9.83;;;;;;;5.72;100.00;101369.97;5073320;28;20099;-40
2024/02/29 03:11:22;;;;;;;12.90;10.07;;;;;;;5.59;100.00;101342.97;5073600;28;20024;-40
2024/02/29 03:13:48;;;;;;;12.23;9.73;;;;;;;5.73;100.00;101365.44;5073730;28;20043;-39
2024/02/29 03:16:21;;;;;;;12.90;9.50;;;;;;;5.74;100.00;101357.19;5073018;28;20471;-39
2024/02/29 03:18:46;;;;;;;14.93;10.23;;;;;;;5.67;100.00;101345.56;5073438;28;20332;-39
2024/02/29 03:21:12;;;;;;;11.60;8.87;;;;;;;5.74;100.00;101345.63;5072881;28;20025;-39
2024/02/29 03:23:37;;;;;;;13.02;10.18;;;;;;;5.67;100.00;101332.97;5072947;28;20024;-39
2024/02/29 03:26:05;;;;;;;11.37;8.57;;;;;;;5.69;100.00;101327.41;5073090;28;20510;-40
2024/02/29 03:28:31;;;;;;;12.82;10.43;;;;;;;5.75;100.00;101340.06;5073930;28;20356;-40
2024/02/29 03:30:56;;;;;;;;;;;;;;;5.82;100.00;101337.47;5074024;28;20029;-39
2024/02/29 03:33:22;;;;;;;13.48;10.27;;;;;;;5.79;100.00;101332.47;5073912;28;20294;-39
2024/02/29 03:35:47;;;;;;;12.30;9.87;;;;;;;5.81;100.00;101330.47;5073551;28;20504;-39
2024/02/29 03:38:12;;;;;;;12.27;10.17;;;;;;;5.81;100.00;101328.59;5073865;28;20048;-39
2024/02/29 03:40:38;;;;;;;12.70;10.80;;;;;;;5.80;100.00;101320.72;5073182;28;20031;-39
2024/02/29 03:43:03;;;;;;;11.73;9.13;;;;;;;5.79;100.00;101306.47;5076765;28;20028;-39
2024/02/29 03:45:29;;;;;;;14.77;10.32;;;;;;;5.83;100.00;101318.50;5076724;28;20025;-40
2024/02/29 03:47:54;;;;;;;12.80;9.83;;;;;;;5.85;100.00;101302.19;5077288;28;20024;-40
2024/02/29 03:50:19;;;;;;;11.07;9.30;;;;;;;5.84;100.00;101301.38;5076855;28;20027;-40
2024/02/29 03:52:45;;;;;;;11.77;9.33;;;;;;;5.86;100.00;101307.41;5076548;28;20028;-40
2024/02/29 03:55:11;;;;;;;12.40;8.87;;;;;;;5.89;100.00;101301.63;5076855;28;20158;-40
2024/02/29 03:57:36;;;;;;;14.35;10.30;;;;;;;5.90;100.00;101300.63;5076745;28;20091;-41
2024/02/29 04:00:02;;;;;;;10.53;9.03;;;;;;;5.91;100.00;101302.31;5076817;28;20047;-40
2024/02/29 04:02:28;;;;;;;12.20;9.90;;;;;;;5.90;100.00;101297.97;5076411;28;20277;-39
2024/02/29 04:04:54;;;;;;;11.23;9.33;;;;;;;5.80;100.00;101275.91;5076345;28;20036;-39
2024/02/29 04:07:19;;;;;;;12.20;9.02;;;;;;;5.95;100.00;101297.38;5076817;28;20338;-40
2024/02/29 04:09:45;;;;;;;13.03;9.47;;;;;;;5.99;100.00;101295.16;5076596;28;20043;-40
2024/02/29 04:12:10;;;;;;;10.00;8.60;;;;;;;6.02;100.00;101292.13;5076495;28;20021;-40
2024/02/29 04:14:38;;;;;;;12.83;8.73;;;;;;;6.04;100.00;101293.56;5076427;28;20016;-40
2024/02/29 04:17:04;;;;;;;10.05;8.00;;;;;;;6.06;100.00;101291.53;5075832;28;20024;-40
2024/02/29 04:19:29;;;;;;;10.63;9.02;;;;;;;6.07;100.00;101293.19;5076110;28;20081;-40
2024/02/29 04:21:54;;;;;;;10.40;8.40;;;;;;;6.04;100.00;101287.38;5076020;28;20052;-39
2024/02/29 04:24:20;;;;;;;11.43;8.20;;;;;;;6.07;100.00;101287.00;5076324;28;20032;-40
2024/02/29 04:26:45;;;;;;;10.20;8.85;;;;;;;6.11;100.00;101288.28;5076514;28;20375;-40
2024/02/29 04:29:11;;;;;;;11.27;8.47;;;;;;;5.99;100.00;101271.84;5075016;28;20020;-40
2024/02/29 04:31:37;;;;;;;10.45;8.50;;;;;;;6.11;100.00;101288.28;5076339;28;20102;-39
2024/02/29 04:34:02;;;;;;;11.73;8.45;;;;;;;6.10;100.00;101282.09;5075574;28;20028;-39
2024/02/29 04:36:28;;;;;;;11.20;9.17;;;;;;;6.10;100.00;101276.72;5075724;28;20063;-39
2024/02/29 04:38:53;;;;;;;12.40;8.93;;;;;;;6.03;100.00;101264.22;5075928;28;20266;-39
2024/02/29 04:41:19;;;;;;;11.57;8.70;;;;;;;6.08;100.00;101264.50;5076158;28;20020;-40
2024/02/29 04:43:44;;;;;;;10.90;8.37;;;;;;;6.07;100.00;101262.84;5075359;28;20078;-40
2024/02/29 04:46:09;;;;;;;11.03;8.70;;;;;;;6.05;100.00;101256.81;5075525;28;20020;-40
2024/02/29 04:48:35;;;;;;;13.07;8.60;;;;;;;6.03;100.00;101254.31;5076177;28;20046;-40
2024/02/29 04:51:00;;;;;;;10.32;8.30;;;;;;;6.05;100.00;101248.75;5075241;28;20054;-40
2024/02/29 04:53:25;;;;;;;11.57;8.00;;;;;;;6.04;100.00;101249.78;5075726;28;20024;-40
2024/02/29 04:55:51;;;;;;;11.10;8.70;;;;;;;5.99;100.00;101236.09;5075998;28;20106;-39
2024/02/29 04:58:16;;;;;;;11.30;8.10;;;;;;;6.04;100.00;101239.03;5075695;28;20024;-39
2024/02/29 05:00:42;;;;;;;8.83;7.83;;;;;;;6.05;100.00;101238.00;5075376;28;20442;-39
2024/02/29 05:03:07;;;;;;;9.82;8.00;;;;;;;6.06;100.00;101232.47;5074642;28;20020;-39
2024/02/29 05:05:32;;;;;;;9.90;8.20;;;;;;;6.09;100.00;101233.94;5075414;28;20040;-39
2024/02/29 05:07:58;;;;;;;9.30;8.10;;;;;;;6.08;100.00;101222.38;5075191;28;20017;-39
2024/02/29 05:10:23;;;;;;;10.97;8.17;;;;;;;6.12;100.00;101231.69;5075684;28;20073;-39
2024/02/29 05:12:53;;;;;;;10.73;8.30;;;;;;;6.06;100.00;101221.72;5075057;28;20055;-39
2024/02/29 05:15:23;;;;;;;11.55;8.13;;;;;;;6.14;100.00;101231.50;5074903;28;20024;-39
2024/02/29 05:17:49;;;;;;;12.40;8.85;;;;;;;6.16;100.00;101224.09;5074634;28;20073;-39
2024/02/29 05:20:14;;;;;;;;;;;;;;;6.23;100.00;101221.47;5075746;28;20024;-39
2024/02/29 05:22:40;;;;;;;11.30;8.50;;;;;;;6.20;100.00;101222.69;5074528;28;19926;-39
2024/02/29 05:25:09;;;;;;;8.70;7.72;;;;;;;6.21;100.00;101212.78;5074836;28;20105;-39
2024/02/29 05:27:35;;;;;;;9.40;8.30;;;;;;;6.22;100.00;101219.81;5074738;28;20090;-39
2024/02/29 05:30:01;;;;;;;9.98;8.52;;;;;;;6.15;100.00;101204.47;5074506;28;20066;-39
2024/02/29 05:32:27;;;;;;;11.18;8.10;;;;;;;6.25;100.00;101214.88;5074712;28;20016;-39
2024/02/29 05:34:53;;;;;;;11.23;8.38;;;;;;;6.26;100.00;101199.59;5075125;28;20020;-40
2024/02/29 05:37:18;;;;;;;11.50;8.73;;;;;;;6.29;100.00;101201.88;5075410;28;20020;-40
2024/02/29 05:39:44;;;;;;;10.27;8.63;;;;;;;6.23;100.00;101189.25;5074311;28;20135;-40
2024/02/29 05:42:09;;;;;;;11.00;9.57;;;;;;;6.24;100.00;101186.34;5073270;28;20031;-39
2024/02/29 05:44:35;;;;;;;12.30;9.23;;;;;;;6.20;100.00;101174.34;5074453;28;20031;-39
2024/02/29 05:47:00;;;;;;;11.82;9.25;;;;;;;6.32;100.00;101196.97;5074345;28;20020;-39
2024/02/29 05:49:25;;;;;;;11.73;8.83;;;;;;;6.36;100.00;101198.25;5074385;28;20058;-39
2024/02/29 05:51:51;;;;;;;10.07;8.97;;;;;;;6.36;100.00;101192.03;5074541;28;20071;-38
2024/02/29 05:54:16;;;;;;;11.13;8.70;;;;;;;6.24;100.00;101172.91;5074171;28;20040;-39
2024/02/29 05:56:41;;;;;;;11.23;9.13;;;;;;;6.39;100.00;101192.50;5074539;28;20445;-39
2024/02/29 05:59:07;;;;;;;12.93;8.07;;;;;;;6.40;100.00;101191.44;5074786;28;20412;-40
2024/02/29 06:01:32;;;;;;;10.17;7.47;;;;;;;6.39;100.00;101191.63;5074127;28;20029;-40
2024/02/29 06:03:58;;;;;;;10.00;7.57;;;;;;;6.39;100.00;101178.19;5073898;28;20019;-40
2024/02/29 06:06:24;;;;;;;8.57;7.13;;;;;;;6.41;100.00;101187.75;5074038;28;20082;-40
2024/02/29 06:08:49;;;;;;;10.52;7.80;;;;;;;6.43;100.00;101184.84;5074364;28;20036;-40
2024/02/29 06:11:15;;;;;;;11.07;7.93;;;;;;;6.43;100.00;101184.84;5074062;28;20026;-40
2024/02/29 06:13:40;;;;;;;8.50;7.05;;;;;;;6.44;100.00;101179.31;5073725;28;20050;-40
2024/02/29 06:16:06;;;;;;;9.60;6.95;;;;;;;6.38;100.00;101172.00;5073621;28;20024;-40
2024/02/29 06:18:32;;;;;;;8.07;6.88;;;;;;;6.43;100.00;101166.88;5073941;28;20028;-40
2024/02/29 06:20:57;;;;;;;9.25;7.53;;;;;;;6.46;100.00;101181.78;5073532;28;20028;-39
2024/02/29 06:23:22;;;;;;;8.93;7.07;;;;;;;6.44;100.00;101170.38;5073807;28;20081;-39
2024/02/29 06:25:50;;;;;;;11.67;7.63;;;;;;;6.39;100.00;101160.25;5073530;28;20103;-39
2024/02/29 06:28:15;;;;;;;9.48;7.70;;;;;;;6.38;100.00;101160.44;5074015;28;20048;-39
2024/02/29 06:30:41;;;;;;;10.43;7.45;;;;;;;6.45;100.00;101164.84;5073497;28;20381;-39
2024/02/29 06:33:06;;;;;;;9.30;7.00;;;;;;;6.46;100.00;101162.97;5073754;28;20016;-40
2024/02/29 06:35:31;;;;;;;10.20;8.03;;;;;;;6.45;100.00;101169.38;5073606;28;20024;-40
2024/02/29 06:37:57;;;;;;;11.17;7.93;;;;;;;6.44;100.00;101165.00;5073871;28;20028;-40
2024/02/29 06:40:22;;;;;;;8.33;7.00;;;;;;;6.42;100.00;101175.97;5073376;28;20376;-40
2024/02/29 06:42:48;;;;;;;8.83;7.53;;;;;;;6.41;100.00;101163.56;5074119;28;20024;-40
2024/02/29 06:45:15;;;;;;;9.73;7.55;;;;;;;6.36;100.00;101149.06;5074137;28;20266;-39
2024/02/29 06:47:42;;;;;;;10.18;7.95;;;;;;;6.37;100.00;101156.09;5073188;28;20134;-39
2024/02/29 06:50:09;;;;;;;10.73;7.30;;;;;;;6.37;100.00;101148.84;5073483;28;20123;-39
2024/02/29 06:52:34;;;;;;;11.02;8.30;;;;;;;6.44;100.00;101159.63;5073163;28;20042;-39
2024/02/29 06:55:00;;;;;;;11.50;8.43;;;;;;;6.40;100.00;101151.16;5074235;28;20453;-40
2024/02/29 06:57:26;;;;;;;10.60;8.20;;;;;;;6.39;100.00;101141.44;5073737;28;20043;-39
2024/02/29 06:59:51;;;;;;;7.88;7.07;;;;;;;6.46;100.00;101146.84;5073161;28;20460;-39
2024/02/29 07:02:17;;;;;;;9.68;7.88;;;;;;;6.41;100.00;101139.38;5073069;28;20036;-40
2024/02/29 07:04:43;;;;;;;11.73;8.03;;;;;;;6.50;100.00;101156.19;5073721;28;20074;-39
2024/02/29 07:07:09;;;;;;;10.55;7.43;;;;;;;6.50;100.00;101155.34;5073534;28;20341;-39
2024/02/29 07:09:35;;;;;;;9.23;7.40;;;;;;;6.53;100.00;101150.41;5073648;28;20040;-39
2024/02/29 07:12:00;;;;;;;12.90;8.27;;;;;;;6.55;100.00;101151.06;5073572;28;20103;-39
2024/02/29 07:14:25;;;;;;;9.67;7.73;;;;;;;6.54;100.00;101143.16;5073597;28;20056;-39
2024/02/29 07:16:51;;;;;;;10.13;6.80;;;;;;;6.58;100.00;101144.44;5075486;28;20055;-39
2024/02/29 07:19:16;;;;;;;12.25;8.23;;;;;;;6.54;100.00;101133.28;5077807;28;20024;-39
2024/02/29 07:21:42;;;;;;;8.90;7.43;;;;;;;6.62;100.00;101140.34;5077218;28;20047;-40
2024/02/29 07:24:08;;;;;;;11.48;8.05;;;;;;;6.60;100.00;101131.66;5077487;28;20464;-40
2024/02/29 07:26:40;;;;;;;8.50;7.20;;;;;;;6.67;100.00;101144.09;5077677;28;20099;-40
2024/02/29 07:29:05;;;;;;;10.75;8.10;;;;;;;6.67;100.00;101129.81;5077433;28;20360;-40
2024/02/29 07:31:31;;;;;;;10.10;7.55;;;;;;;6.70;100.00;101137.50;5077116;28;20029;-39
2024/02/29 07:33:56;;;;;;;11.18;7.57;;;;;;;6.70;100.00;101129.44;5077152;28;20153;-39
2024/02/29 07:36:22;;;;;;;11.67;7.40;;;;;;;6.74;100.00;101133.38;5076536;28;20513;-40
2024/02/29 07:38:47;;;;;;;10.25;7.85;;;;;;;6.77;100.00;101132.16;5076998;28;20132;-39
2024/02/29 07:41:12;;;;;;;12.02;7.43;;;;;;;6.80;100.00;101129.06;5077159;28;20425;-38
2024/02/29 07:43:38;;;;;;;12.20;8.27;;;;;;;6.80;100.00;101121.84;5076677;28;20353;-42
2024/02/29 07:46:03;;;;;;;14.93;8.90;;;;;;;6.80;100.00;101110.25;5076924;28;20032;-40
2024/02/29 07:48:30;;;;;;;10.40;7.43;;;;;;;6.89;100.00;101125.19;5076577;28;20024;-40
2024/02/29 07:50:55;;;;;;;11.45;8.90;;;;;;;6.90;100.00;101111.53;5076444;28;20063;-40
2024/02/29 07:53:20;;;;;;;10.93;8.27;;;;;;;6.88;100.00;101113.63;5076069;28;20028;-40
2024/02/29 07:55:46;;;;;;;10.83;8.27;;;;;;;6.99;100.00;101114.06;5076177;28;20040;-39
2024/02/29 07:58:11;;;;;;;9.90;7.90;;;;;;;6.87;100.00;101098.50;5076966;28;20020;-40
2024/02/29 08:00:37;;;;;;;10.43;7.87;;;;;;;7.04;100.00;101106.22;5076533;28;20460;-38
2024/02/29 08:03:04;;;;;;;12.30;8.35;;;;;;;7.04;100.00;101115.13;5076544;28;20432;-39
2024/02/29 08:05:30;;;;;;;9.52;7.97;;;;;;;7.01;100.00;101104.75;5076463;28;20048;-39
2024/02/29 08:07:55;;;;;;;10.85;8.55;;;;;;;7.09;100.00;101109.13;5076176;28;20368;-39
2024/02/29 08:10:20;;;;;;;10.20;8.10;;;;;;;7.11;100.00;101107.06;5075504;28;20035;-39
2024/02/29 08:12:46;;;;;;;10.27;8.40;;;;;;;7.13;100.00;101103.16;5076586;28;20428;-40
2024/02/29 08:15:11;;;;;;;10.23;7.80;;;;;;;7.14;100.00;101109.34;5076827;28;20119;-40
2024/02/29 08:17:37;;;;;;;9.95;8.63;;;;;;;7.18;100.00;101100.69;5076756;28;20035;-39
2024/02/29 08:20:03;;;;;;;9.53;8.03;;;;;;;7.18;100.00;101099.88;5076042;28;20047;-40
2024/02/29 08:22:29;;;;;;;10.70;7.95;;;;;;;7.23;100.00;101100.09;5076363;28;20033;-39
2024/02/29 08:24:54;;;;;;;11.43;7.83;;;;;;;7.25;100.00;101100.69;5076123;28;20028;-39
2024/02/29 08:27:19;;;;;;;11.67;8.27;;;;;;;7.21;100.00;101080.63;5075623;28;20030;-40
2024/02/29 08:29:45;;;;;;;10.20;8.50;;;;;;;7.32;100.00;101089.94;5076467;28;20051;-40
2024/02/29 08:32:10;;;;;;;11.93;7.57;;;;;;;7.35;100.00;101093.06;5075884;28;20373;-40
2024/02/29 08:34:35;;;;;;;10.83;7.70;;;;;;;7.38;100.00;101094.53;5074810;28;20098;-40
2024/02/29 08:37:02;;;;;;;9.47;8.00;;;;;;;7.41;100.00;101086.84;5075747;28;20440;-39
2024/02/29 08:39:27;;;;;;;;;;;;;;;7.48;100.00;101082.34;5075892;28;20021;-39
2024/02/29 08:41:52;;;;;;;11.23;7.40;;;;;;;7.36;100.00;101062.44;5075389;28;19912;-39
2024/02/29 08:44:18;;;;;;;13.63;7.13;;;;;;;7.52;100.00;101085.44;5075660;28;20423;-39
2024/02/29 08:46:43;;;;;;;10.30;7.22;;;;;;;7.51;100.00;101075.69;5075550;28;20046;-40
2024/02/29 08:49:09;;;;;;;9.87;7.73;;;;;;;7.60;100.00;101084.41;5076050;28;20107;-39
2024/02/29 08:51:35;;;;;;;14.20;8.20;;;;;;;7.60;100.00;101079.84;5075427;28;20107;-39
2024/02/29 08:54:01;;;;;;;11.65;7.30;;;;;;;7.63;100.00;101070.56;5075158;28;20106;-39
2024/02/29 08:56:28;;;;;;;10.65;7.85;;;;;;;7.66;100.00;101080.88;5075396;28;20032;-39
2024/02/29 08:58:53;;;;;;;9.65;7.30;;;;;;;7.72;100.00;101072.00;5075894;28;20078;-39
2024/02/29 09:01:20;;;;;;;10.00;6.85;;;;;;;7.69;100.00;101067.03;5075780;28;20024;-39
2024/02/29 09:03:45;;;;;;;9.43;7.05;;;;;;;7.69;100.00;101065.16;5075524;28;20090;-40
2024/02/29 09:06:13;;;;;;;8.38;6.70;;;;;;;7.79;100.00;101077.38;5075255;28;20028;-39
2024/02/29 09:08:38;;;;;;;8.68;7.03;;;;;;;7.82;100.00;101075.13;5074856;28;20028;-39
2024/02/29 09:11:04;;;;;;;8.35;6.43;;;;;;;7.86;100.00;101073.66;5074799;28;20134;-38
2024/02/29 09:13:29;;;;;;;6.70;5.73;;;;;;;7.89;100.00;101067.84;5075733;28;20120;-40
2024/02/29 09:15:54;;;;;;;7.80;6.40;;;;;;;7.86;100.00;101062.06;5074964;28;20032;-40
2024/02/29 09:18:20;;;;;;;8.40;6.23;;;;;;;7.95;100.00;101066.19;5075203;28;20251;-40
2024/02/29 09:20:45;;;;;;;9.30;6.55;;;;;;;7.98;100.00;101058.53;5074526;28;20548;-40
2024/02/29 09:23:11;;;;;;;9.67;7.10;;;;;;;7.98;100.00;101052.31;5075168;28;20055;-39
2024/02/29 09:25:36;;;;;;;8.30;6.03;;;;;;;7.94;100.00;101038.44;5075288;28;20035;-39
2024/02/29 09:28:01;;;;;;;9.38;6.93;;;;;;;7.96;100.00;101031.00;5075018;28;20253;-39
2024/02/29 09:30:28;;;;;;;6.30;5.30;;;;;;;8.05;100.00;101045.03;5074790;28;20020;-39
2024/02/29 09:32:55;;;;;;;6.97;5.70;;;;;;;8.01;100.00;101027.69;5074907;28;20031;-40
2024/02/29 09:35:20;;;;;;;9.88;6.13;;;;;;;8.07;100.00;101036.78;5074822;28;20027;-39
2024/02/29 09:37:46;;;;;;;8.38;5.75;;;;;;;8.07;100.00;101034.09;5075289;28;20433;-39
2024/02/29 09:40:12;;;;;;;7.15;5.53;;;;;;;8.10;100.00;101025.56;5074009;28;20032;-39
2024/02/29 09:42:38;;;;;;;8.63;5.88;;;;;;;8.15;100.00;101020.38;5074094;28;20487;-39
2024/02/29 09:45:11;;;;;;;8.10;6.05;;;;;;;8.19;100.00;101021.59;5074723;28;20364;-40
2024/02/29 09:47:38;;;;;;;8.27;5.75;;;;;;;8.20;100.00;101017.91;5074409;28;20039;-40
2024/02/29 09:50:04;;;;;;;9.55;6.15;;;;;;;8.24;100.00;101027.19;5074682;28;20468;-39
2024/02/29 09:52:34;;;;;;;8.45;5.50;;;;;;;8.30;100.00;101014.78;5074800;28;20039;-39
2024/02/29 09:55:04;;;;;;;6.47;5.57;;;;;;;8.24;100.00;101006.47;5074743;28;20353;-39
2024/02/29 09:57:32;;;;;;;7.03;5.43;;;;;;;8.38;100.00;101017.25;5073310;28;20419;-39
2024/02/29 09:59:58;;;;;;;7.60;5.60;;;;;;;8.41;100.00;101012.25;5074382;28;20025;-39
2024/02/29 10:02:24;;;;;;;;;;;;;;;8.50;100.00;101008.28;5075130;28;20025;-39
2024/02/29 10:04:49;;;;;;;6.75;5.20;;;;;;;8.47;100.00;101014.09;5074648;28;19911;-39
2024/02/29 10:07:15;;;;;;;7.88;5.60;;;;;;;8.44;100.00;100989.44;5073852;28;20078;-40
2024/02/29 10:09:41;;;;;;;6.57;5.27;;;;;;;8.46;100.00;100998.97;5074967;28;20021;-40
2024/02/29 10:12:07;;;;;;;7.15;5.60;;;;;;;8.55;100.00;101006.84;5073951;28;20024;-40
2024/02/29 10:14:32;;;;;;;6.63;5.32;;;;;;;8.55;100.00;101013.03;5073920;28;20031;-40
2024/02/29 10:16:58;;;;;;;7.43;5.20;;;;;;;8.48;100.00;100996.88;5073955;28;20096;-40
2024/02/29 10:19:24;;;;;;;9.32;6.10;;;;;;;8.51;100.00;100991.06;5074458;28;20497;-40
2024/02/29 10:21:52;;;;;;;7.15;5.10;;;;;;;8.49;100.00;100987.78;5074365;28;20017;-40
2024/02/29 10:24:22;;;;;;;6.40;4.90;;;;;;;8.57;100.00;100991.25;5074398;28;20025;-40
2024/02/29 10:26:47;;;;;;;6.40;5.22;;;;;;;8.60;100.00;100993.53;5056819;28;20367;-40
2024/02/29 10:29:16;;;;;;;6.00;4.57;;;;;;;8.64;100.00;100984.00;5074574;28;20021;-40
2024/02/29 10:31:41;;;;;;;7.38;4.78;;;;;;;8.63;100.00;100976.91;5073371;28;20025;-39
2024/02/29 10:34:13;;;;;;;6.30;4.97;;;;;;;8.70;100.00;100993.91;5073576;28;20043;-39
2024/02/29 10:36:39;;;;;;;7.60;4.80;;;;;;;8.69;100.00;100990.38;5073197;28;20024;-39
2024/02/29 10:39:05;;;;;;;7.10;5.53;;;;;;;8.70;100.00;100983.13;5073391;28;20016;-39
2024/02/29 10:41:32;;;;;;;6.90;4.70;;;;;;;8.74;100.00;100990.56;5073634;28;20081;-40
2024/02/29 10:44:05;;;;;;;6.75;5.07;;;;;;;8.69;100.00;100979.59;5073798;28;20108;-40
2024/02/29 10:46:32;;;;;;;6.93;4.63;;;;;;;8.67;100.00;100973.56;5074378;28;20345;-40
2024/02/29 10:49:07;;;;;;;6.43;4.78;;;;;;;8.75;100.00;100980.59;5074019;28;20357;-40
2024/02/29 10:51:33;;;;;;;6.60;4.38;;;;;;;8.68;100.00;100966.31;5073865;28;20028;-40
2024/02/29 10:54:19;;;;;;;4.37;3.93;;;;;;;8.75;100.00;100981.44;5074000;28;20032;-40
2024/02/29 10:56:48;;;;;;;6.13;4.80;;;;;;;8.73;100.00;100977.28;5074564;28;20078;-40
2024/02/29 10:59:19;;;;;;;5.47;4.40;;;;;;;8.75;100.00;100975.22;5073700;28;20042;-40
2024/02/29 11:01:45;;;;;;;5.63;4.50;;;;;;;8.72;100.00;100971.06;5073351;28;20051;-40
2024/02/29 11:04:11;;;;;;;6.40;5.22;;;;;;;8.73;100.00;100972.72;5073032;28;20472;-40
2024/02/29 11:06:40;;;;;;;5.50;4.25;;;;;;;8.76;100.00;100971.47;5072998;28;20017;-40
2024/02/29 11:09:08;;;;;;;5.90;5.30;;;;;;;8.69;100.00;100963.44;5074031;28;20059;-40
2024/02/29 11:11:34;;;;;;;6.53;4.63;;;;;;;8.71;100.00;100974.81;5073550;28;20348;-40
2024/02/29 11:14:05;;;;;;;6.82;4.63;;;;;;;8.71;100.00;100971.28;5073309;28;20027;-39
2024/02/29 11:16:56;;;;;;;5.95;4.80;;;;;;;8.72;100.00;100970.25;5073428;28;20032;-39